createdAt,value
2024-03-08T00:00:29.159Z,12.43
2024-03-08T00:02:55.743Z,11.70
2024-03-08T00:05:22.703Z,12.13
2024-03-08T00:07:49.663Z,12.32
2024-03-08T00:10:16.535Z,11.95
2024-03-08T00:12:45.270Z,13.77
2024-03-08T00:15:15.361Z,12.15
2024-03-08T00:17:42.984Z,12.63
2024-03-08T00:20:09.893Z,13.32
2024-03-08T00:22:37.138Z,14.38
2024-03-08T00:25:04.811Z,12.68
2024-03-08T00:27:34.746Z,14.77
2024-03-08T00:30:01.865Z,14.52
2024-03-08T00:32:28.762Z,17.60
2024-03-08T00:34:55.655Z,21.08
2024-03-08T00:37:23.031Z,18.02
2024-03-08T00:39:53.193Z,20.48
2024-03-08T00:42:21.339Z,18.90
2024-03-08T00:44:49.330Z,16.10
2024-03-08T00:47:16.004Z,17.33
2024-03-08T00:49:43.197Z,17.73
2024-03-08T00:52:10.168Z,22.23
2024-03-08T00:54:39.625Z,19.70
2024-03-08T00:57:08.029Z,18.80
2024-03-08T00:59:35.033Z,18.48
2024-03-08T01:02:03.002Z,21.95
2024-03-08T01:04:34.095Z,17.90
2024-03-08T01:07:01.056Z,17.05
2024-03-08T01:09:28.525Z,20.42
2024-03-08T01:11:58.383Z,24.77
2024-03-08T01:14:27.044Z,21.40
2024-03-08T01:16:53.823Z,20.30
2024-03-08T01:19:20.369Z,19.98
2024-03-08T01:21:47.509Z,19.63
2024-03-08T01:24:14.242Z,19.95
2024-03-08T01:26:40.975Z,21.85
2024-03-08T01:29:07.682Z,19.95
2024-03-08T01:31:34.860Z,20.48
2024-03-08T01:34:01.405Z,18.58
2024-03-08T01:36:27.931Z,23.50
2024-03-08T01:38:54.836Z,23.90
2024-03-08T01:41:21.430Z,22.65
2024-03-08T01:43:48.057Z,18.80
2024-03-08T01:46:18.695Z,21.90
2024-03-08T01:48:46.180Z,26.25
2024-03-08T01:51:13.549Z,23.00
2024-03-08T01:53:41.356Z,25.50
2024-03-08T01:58:35.107Z,20.08
2024-03-08T02:01:05.532Z,23.02
2024-03-08T02:03:33.019Z,24.40
2024-03-08T02:06:02.307Z,22.02
2024-03-08T02:08:30.456Z,25.25
2024-03-08T02:10:57.045Z,23.10
2024-03-08T02:13:23.599Z,22.00
2024-03-08T02:16:00.410Z,23.83
2024-03-08T02:18:28.534Z,24.83
2024-03-08T02:21:05.833Z,24.90
2024-03-08T02:23:33.264Z,24.02
2024-03-08T02:26:00.218Z,26.23
2024-03-08T02:28:26.731Z,25.38
2024-03-08T02:30:59.673Z,26.02
2024-03-08T02:33:28.242Z,26.48
2024-03-08T02:35:55.012Z,26.10
2024-03-08T02:38:23.366Z,27.48
2024-03-08T02:40:52.306Z,28.60
2024-03-08T02:43:20.649Z,26.50
2024-03-08T02:45:47.803Z,29.23
2024-03-08T02:48:15.734Z,30.40
2024-03-08T02:50:43.911Z,29.73
2024-03-08T02:53:11.380Z,27.98
2024-03-08T02:55:40.325Z,29.85
2024-03-08T02:58:09.817Z,33.42
2024-03-08T03:00:37.185Z,31.73
2024-03-08T03:03:04.430Z,30.00
2024-03-08T03:05:31.411Z,31.77
2024-03-08T03:07:59.289Z,30.25
2024-03-08T03:10:26.948Z,30.42
2024-03-08T03:12:53.889Z,29.90
2024-03-08T03:15:21.077Z,32.08
2024-03-08T03:17:49.352Z,31.77
2024-03-08T03:20:22.749Z,33.20
2024-03-08T03:22:55.567Z,32.47
2024-03-08T03:25:26.854Z,36.42
2024-03-08T03:27:54.189Z,34.47
2024-03-08T03:30:22.388Z,37.28
2024-03-08T03:32:52.447Z,31.58
2024-03-08T03:35:21.675Z,35.28
2024-03-08T03:38:07.154Z,37.22
2024-03-08T03:40:41.496Z,38.42
2024-03-08T03:43:08.936Z,31.63
2024-03-08T03:45:37.166Z,34.30
2024-03-08T03:48:06.359Z,35.70
2024-03-08T03:50:35.976Z,30.33
2024-03-08T03:53:09.518Z,32.67
2024-03-08T03:55:39.961Z,35.53
2024-03-08T03:58:07.488Z,33.80
2024-03-08T04:00:34.040Z,34.60
2024-03-08T04:03:01.983Z,33.15
2024-03-08T04:05:29.065Z,33.00
2024-03-08T04:07:55.794Z,34.42
2024-03-08T04:10:22.543Z,38.55
2024-03-08T04:12:49.040Z,38.08
2024-03-08T04:15:16.496Z,38.70
2024-03-08T04:17:43.234Z,33.90
2024-03-08T04:20:11.370Z,41.97
2024-03-08T04:22:39.072Z,32.28
2024-03-08T04:25:06.873Z,36.15
2024-03-08T04:27:37.034Z,33.08
2024-03-08T04:30:04.482Z,32.47
2024-03-08T04:32:33.552Z,37.47
2024-03-08T04:35:02.384Z,34.40
2024-03-08T04:37:30.854Z,38.33
2024-03-08T04:39:57.904Z,35.25
2024-03-08T04:42:25.310Z,37.75
2024-03-08T04:44:52.258Z,36.60
2024-03-08T04:47:19.078Z,37.03
2024-03-08T04:49:45.803Z,34.90
2024-03-08T04:52:13.214Z,34.83
2024-03-08T04:54:40.191Z,32.70
2024-03-08T04:57:09.253Z,35.65
2024-03-08T04:59:37.527Z,37.38
2024-03-08T05:02:04.630Z,33.85
2024-03-08T05:04:31.344Z,36.75
2024-03-08T05:06:58.262Z,32.78
2024-03-08T05:09:24.920Z,40.58
2024-03-08T05:11:51.730Z,34.55
2024-03-08T05:14:18.558Z,33.78
2024-03-08T05:16:49.878Z,36.08
2024-03-08T05:19:20.823Z,34.53
2024-03-08T05:21:48.203Z,35.22
2024-03-08T05:24:16.623Z,33.28
2024-03-08T05:26:43.853Z,34.92
2024-03-08T05:29:10.833Z,38.17
2024-03-08T05:31:59.049Z,37.00
2024-03-08T05:34:26.027Z,33.47
2024-03-08T05:36:52.743Z,38.15
2024-03-08T05:39:20.921Z,37.92
2024-03-08T05:41:48.027Z,37.03
2024-03-08T05:44:18.914Z,32.95
2024-03-08T05:46:45.806Z,36.15
2024-03-08T05:49:14.009Z,38.13
2024-03-08T05:51:41.546Z,32.53
2024-03-08T05:54:14.605Z,41.72
2024-03-08T05:56:49.365Z,36.92
2024-03-08T05:59:21.082Z,32.78
2024-03-08T06:01:57.010Z,40.60
2024-03-08T06:04:26.737Z,36.92
2024-03-08T06:06:56.811Z,38.25
2024-03-08T06:09:25.179Z,32.28
2024-03-08T06:11:55.759Z,40.85
2024-03-08T06:14:22.948Z,36.53
2024-03-08T06:16:51.562Z,37.15
2024-03-08T06:19:18.508Z,34.47
2024-03-08T06:21:45.116Z,39.13
2024-03-08T06:24:11.842Z,37.92
2024-03-08T06:26:40.070Z,39.58
2024-03-08T06:29:08.079Z,36.13
2024-03-08T06:31:34.842Z,39.60
2024-03-08T06:34:01.717Z,38.35
2024-03-08T06:36:29.338Z,36.15
2024-03-08T06:38:56.091Z,35.42
2024-03-08T06:41:22.663Z,35.88
2024-03-08T06:43:50.244Z,38.38
2024-03-08T06:46:17.370Z,37.97
2024-03-08T06:48:44.759Z,37.88
2024-03-08T06:51:12.225Z,35.67
2024-03-08T06:53:39.810Z,37.75
2024-03-08T06:56:06.736Z,38.17
2024-03-08T06:58:33.901Z,36.25
2024-03-08T07:01:02.371Z,39.80
2024-03-08T07:03:30.684Z,39.17
2024-03-08T07:05:59.509Z,38.33
2024-03-08T07:08:28.809Z,34.28
2024-03-08T07:10:55.927Z,36.00
2024-03-08T07:13:22.636Z,35.97
2024-03-08T07:15:49.262Z,33.88
2024-03-08T07:18:16.448Z,35.60
2024-03-08T07:20:44.796Z,39.72
2024-03-08T07:23:11.860Z,33.50
2024-03-08T07:25:40.748Z,38.85
2024-03-08T07:28:09.678Z,37.53
2024-03-08T07:30:47.370Z,38.05
2024-03-08T07:33:14.449Z,36.40
2024-03-08T07:35:42.195Z,34.20
2024-03-08T07:38:11.295Z,32.05
2024-03-08T07:40:48.615Z,39.67
2024-03-08T07:43:15.445Z,38.95
2024-03-08T07:45:41.965Z,36.33
2024-03-08T07:48:12.527Z,34.80
2024-03-08T07:50:41.215Z,37.15
2024-03-08T07:53:09.451Z,40.08
2024-03-08T07:55:37.098Z,43.65
2024-03-08T07:58:04.536Z,37.95
2024-03-08T08:00:33.119Z,37.70
2024-03-08T08:03:00.013Z,36.10
2024-03-08T08:05:27.590Z,37.42
2024-03-08T08:07:54.626Z,42.40
2024-03-08T08:10:26.685Z,40.33
2024-03-08T08:12:53.679Z,38.25
2024-03-08T08:15:20.606Z,38.20
2024-03-08T08:17:48.973Z,41.70
2024-03-08T08:20:16.397Z,45.03
2024-03-08T08:22:46.790Z,41.78
2024-03-08T08:25:14.690Z,40.67
2024-03-08T08:27:41.549Z,42.58
2024-03-08T08:30:09.693Z,39.08
2024-03-08T08:32:48.399Z,39.45
2024-03-08T08:35:15.397Z,41.97
2024-03-08T08:37:42.535Z,41.20
2024-03-08T08:40:16.315Z,39.47
2024-03-08T08:42:43.804Z,37.92
2024-03-08T08:45:16.021Z,43.53
2024-03-08T08:50:12.906Z,43.15
2024-03-08T08:52:40.959Z,40.95
2024-03-08T08:55:07.924Z,39.65
2024-03-08T08:57:34.487Z,46.60
2024-03-08T09:00:01.621Z,38.90
2024-03-08T09:02:28.635Z,42.20
2024-03-08T09:04:55.421Z,42.80
2024-03-08T09:07:22.605Z,44.40
2024-03-08T09:09:49.206Z,42.40
2024-03-08T09:12:15.828Z,42.85
2024-03-08T09:14:42.479Z,39.72
2024-03-08T09:17:09.704Z,41.28
2024-03-08T09:19:37.771Z,45.28
2024-03-08T09:22:05.625Z,40.90
2024-03-08T09:27:01.649Z,39.85
2024-03-08T09:29:28.275Z,45.42
2024-03-08T09:31:55.070Z,46.45
2024-03-08T09:34:25.745Z,42.20
2024-03-08T09:36:57.288Z,41.42
2024-03-08T09:39:25.681Z,41.90
2024-03-08T09:41:53.565Z,42.97
2024-03-08T09:44:20.677Z,40.10
2024-03-08T09:46:53.592Z,38.38
2024-03-08T09:49:20.857Z,40.80
2024-03-08T09:51:49.742Z,39.72
2024-03-08T09:54:22.975Z,41.35
2024-03-08T09:56:52.655Z,43.17
2024-03-08T09:59:28.344Z,42.85
2024-03-08T10:02:00.217Z,39.22
2024-03-08T10:04:29.611Z,39.88
2024-03-08T10:06:58.129Z,43.25
2024-03-08T10:09:26.301Z,39.88
2024-03-08T10:11:58.961Z,38.75
2024-03-08T10:14:27.758Z,41.58
2024-03-08T10:16:54.489Z,44.22
2024-03-08T10:19:21.823Z,43.08
2024-03-08T10:24:16.696Z,41.25
2024-03-08T10:26:45.200Z,41.50
2024-03-08T10:29:16.527Z,42.88
2024-03-08T10:31:46.534Z,44.80
2024-03-08T10:34:13.691Z,40.38
2024-03-08T10:36:41.659Z,42.45
2024-03-08T10:39:37.894Z,42.10
2024-03-08T10:42:06.110Z,40.28
2024-03-08T10:44:45.508Z,44.50
2024-03-08T10:47:18.905Z,38.22
2024-03-08T10:50:10.991Z,38.35
2024-03-08T10:55:13.643Z,35.33
2024-03-08T10:57:42.471Z,36.75
2024-03-08T11:00:12.609Z,34.97
2024-03-08T11:02:39.353Z,38.38
2024-03-08T11:05:07.540Z,34.58
2024-03-08T11:07:37.163Z,39.80
2024-03-08T11:10:07.012Z,35.72
2024-03-08T11:12:38.287Z,43.13
2024-03-08T11:15:19.900Z,38.95
2024-03-08T11:17:50.434Z,43.55
2024-03-08T11:20:24.269Z,37.13
2024-03-08T11:25:33.103Z,34.35
2024-03-08T11:28:09.000Z,35.17
2024-03-08T11:30:35.551Z,37.25
2024-03-08T11:33:04.603Z,38.88
2024-03-08T11:35:31.233Z,36.22
2024-03-08T11:38:01.770Z,38.13
2024-03-08T11:40:28.612Z,43.70
2024-03-08T11:42:56.444Z,34.97
2024-03-08T11:45:23.021Z,32.75
2024-03-08T11:47:50.636Z,31.08
2024-03-08T11:50:20.301Z,34.72
2024-03-08T11:52:47.845Z,31.73
2024-03-08T11:55:14.811Z,31.85
2024-03-08T11:57:43.168Z,29.80
2024-03-08T12:00:24.865Z,33.00
2024-03-08T12:03:04.540Z,34.08
2024-03-08T12:05:32.397Z,28.92
2024-03-08T12:08:00.068Z,30.98
2024-03-08T12:10:27.510Z,31.05
2024-03-08T12:12:55.773Z,29.85
2024-03-08T12:15:24.017Z,30.23
2024-03-08T12:17:52.951Z,27.48
2024-03-08T12:20:24.202Z,25.52
2024-03-08T12:22:53.811Z,27.33
2024-03-08T12:25:21.712Z,27.17
2024-03-08T12:27:48.480Z,30.30
2024-03-08T12:30:23.211Z,28.77
2024-03-08T12:32:57.935Z,26.00
2024-03-08T12:35:26.878Z,26.98
2024-03-08T12:37:55.635Z,24.75
2024-03-08T12:40:29.893Z,23.65
2024-03-08T12:42:57.274Z,22.05
2024-03-08T12:45:25.304Z,22.27
2024-03-08T12:47:52.933Z,21.90
2024-03-08T12:50:20.084Z,20.55
2024-03-08T12:52:46.624Z,20.17
2024-03-08T12:55:13.790Z,20.10
2024-03-08T12:57:40.469Z,19.40
2024-03-08T13:00:07.977Z,19.77
2024-03-08T13:02:34.448Z,18.38
2024-03-08T13:05:01.086Z,20.35
2024-03-08T13:07:30.461Z,22.15
2024-03-08T13:09:58.145Z,23.60
2024-03-08T13:14:51.527Z,19.45
2024-03-08T13:17:19.388Z,23.38
2024-03-08T13:19:46.134Z,19.73
2024-03-08T13:22:17.588Z,20.70
2024-03-08T13:24:46.347Z,19.85
2024-03-08T13:27:23.129Z,19.42
2024-03-08T13:29:50.043Z,21.13
2024-03-08T13:32:17.241Z,18.67
2024-03-08T13:34:45.997Z,21.42
2024-03-08T13:37:12.829Z,17.60
2024-03-08T13:39:42.255Z,23.30
2024-03-08T13:42:10.948Z,16.13
2024-03-08T13:44:38.031Z,15.45
2024-03-08T13:47:05.911Z,11.65
2024-03-08T13:49:33.118Z,16.08
2024-03-08T13:52:02.533Z,14.43
2024-03-08T13:54:31.763Z,13.35
2024-03-08T13:56:59.399Z,14.48
2024-03-08T14:01:52.686Z,13.13
2024-03-08T14:04:19.288Z,13.52
2024-03-08T14:06:46.232Z,16.48
2024-03-08T14:09:18.840Z,12.93
2024-03-08T14:11:45.516Z,13.05
2024-03-08T14:14:15.689Z,13.85
2024-03-08T14:16:42.336Z,15.65
2024-03-08T14:19:11.154Z,18.80
2024-03-08T14:21:40.277Z,12.38
2024-03-08T14:24:07.747Z,16.02
2024-03-08T14:26:35.151Z,14.40
2024-03-08T14:29:01.826Z,14.80
2024-03-08T14:31:29.217Z,17.25
2024-03-08T14:33:56.942Z,16.10
2024-03-08T14:38:51.148Z,14.10
2024-03-08T14:41:17.782Z,15.05
2024-03-08T14:43:46.058Z,19.38
2024-03-08T14:46:18.549Z,16.00
2024-03-08T14:48:46.513Z,14.40
2024-03-08T14:51:15.437Z,24.88
2024-03-08T14:53:42.282Z,17.95
2024-03-08T14:56:09.771Z,20.63
2024-03-08T14:58:36.619Z,19.77
2024-03-08T15:01:03.905Z,21.58
2024-03-08T15:03:30.988Z,19.65
2024-03-08T15:05:57.595Z,22.08
2024-03-08T15:08:25.678Z,22.20
2024-03-08T15:10:55.548Z,23.92
2024-03-08T15:13:24.048Z,21.58
2024-03-08T15:15:55.971Z,25.17
2024-03-08T15:18:26.895Z,24.77
2024-03-08T15:20:54.236Z,25.00
2024-03-08T15:23:21.766Z,22.27
2024-03-08T15:25:50.216Z,22.17
2024-03-08T15:28:20.382Z,23.70
2024-03-08T15:30:55.397Z,23.58
2024-03-08T15:33:26.816Z,23.25
2024-03-08T15:35:59.901Z,24.08
2024-03-08T15:38:28.666Z,25.65
2024-03-08T15:40:56.100Z,27.88
2024-03-08T15:43:23.477Z,24.67
2024-03-08T15:45:50.189Z,26.25
2024-03-08T15:48:17.448Z,30.13
2024-03-08T15:50:44.117Z,29.73
2024-03-08T15:53:13.984Z,27.00
2024-03-08T15:55:42.405Z,31.70
2024-03-08T15:58:11.376Z,28.92
2024-03-08T16:00:46.830Z,27.00
2024-03-08T16:03:15.803Z,33.83
2024-03-08T16:05:44.963Z,40.88
2024-03-08T16:08:19.232Z,43.72
2024-03-08T16:10:50.690Z,40.88
2024-03-08T16:13:18.699Z,44.75
2024-03-08T16:15:47.629Z,30.85
2024-03-08T16:18:16.625Z,32.88
2024-03-08T16:20:48.274Z,34.70
2024-03-08T16:23:17.691Z,33.65
2024-03-08T16:25:44.811Z,45.85
2024-03-08T16:28:12.277Z,43.60
2024-03-08T16:30:40.902Z,32.30
2024-03-08T16:33:07.874Z,32.65
2024-03-08T16:35:37.068Z,35.15
2024-03-08T16:38:03.855Z,32.63
2024-03-08T16:40:30.998Z,32.55
2024-03-08T16:42:57.581Z,30.63
2024-03-08T16:45:24.714Z,30.83
2024-03-08T16:47:57.309Z,29.15
2024-03-08T16:50:24.538Z,27.92
2024-03-08T16:52:56.601Z,30.65
2024-03-08T16:55:25.324Z,32.25
2024-03-08T16:57:51.922Z,33.10
2024-03-08T17:00:23.504Z,30.30
2024-03-08T17:02:50.998Z,30.70
2024-03-08T17:05:17.975Z,30.10
2024-03-08T17:07:49.666Z,32.00
2024-03-08T17:10:19.218Z,33.22
2024-03-08T17:12:50.626Z,34.97
2024-03-08T17:15:23.846Z,30.55
2024-03-08T17:17:54.090Z,36.63
2024-03-08T17:20:22.781Z,40.47
2024-03-08T17:22:50.954Z,33.85
2024-03-08T17:25:21.331Z,29.33
2024-03-08T17:27:55.593Z,31.25
2024-03-08T17:30:28.024Z,27.73
2024-03-08T17:33:00.339Z,27.92
2024-03-08T17:35:29.690Z,26.90
2024-03-08T17:37:57.910Z,28.15
2024-03-08T17:40:26.997Z,26.98
2024-03-08T17:42:55.565Z,28.08
2024-03-08T17:45:24.051Z,27.60
2024-03-08T17:47:51.898Z,34.40
2024-03-08T17:50:19.609Z,31.73
2024-03-08T17:52:47.527Z,27.17
2024-03-08T17:55:15.102Z,29.63
2024-03-08T17:57:48.907Z,32.22
2024-03-08T18:00:40.023Z,38.10
2024-03-08T18:03:06.824Z,38.30
2024-03-08T18:05:33.787Z,32.70
2024-03-08T18:08:01.754Z,35.33
2024-03-08T18:10:31.065Z,34.90
2024-03-08T18:12:59.865Z,32.67
2024-03-08T18:15:27.595Z,34.53
2024-03-08T18:17:56.476Z,33.80
2024-03-08T18:20:32.349Z,32.67
2024-03-08T18:23:03.930Z,35.55
2024-03-08T18:25:32.419Z,30.33
2024-03-08T18:28:06.875Z,30.35
2024-03-08T18:30:34.040Z,32.33
2024-03-08T18:33:00.612Z,31.50
2024-03-08T18:35:27.313Z,32.38
2024-03-08T18:37:57.067Z,32.10
2024-03-08T18:40:24.596Z,32.55
2024-03-08T18:42:52.761Z,34.70
2024-03-08T18:45:21.939Z,33.58
2024-03-08T18:47:50.526Z,32.17
2024-03-08T18:50:25.377Z,39.53
2024-03-08T18:52:53.077Z,33.67
2024-03-08T19:00:22.760Z,37.38
2024-03-08T19:02:50.976Z,37.42
2024-03-08T19:05:18.342Z,38.83
2024-03-08T19:07:46.407Z,36.60
2024-03-08T19:10:15.386Z,40.40
2024-03-08T19:12:44.558Z,33.33
2024-03-08T19:15:11.364Z,34.90
2024-03-08T19:17:38.145Z,43.28
2024-03-08T19:20:07.566Z,38.28
2024-03-08T19:22:34.198Z,42.22
2024-03-08T19:25:03.176Z,33.67
2024-03-08T19:27:29.739Z,34.28
2024-03-08T19:29:56.330Z,35.70
2024-03-08T19:32:22.899Z,35.00
2024-03-08T19:34:51.785Z,38.10
2024-03-08T19:37:18.462Z,33.55
2024-03-08T19:39:45.894Z,41.05
2024-03-08T19:42:13.241Z,40.55
2024-03-08T19:44:40.512Z,40.60
2024-03-08T19:47:09.174Z,39.53
2024-03-08T19:49:36.671Z,36.35
2024-03-08T19:52:05.118Z,33.55
2024-03-08T19:54:33.622Z,36.92
2024-03-08T19:57:08.857Z,40.85
2024-03-08T19:59:42.836Z,43.45
2024-03-08T20:02:09.958Z,42.17
2024-03-08T20:04:36.825Z,45.58
2024-03-08T20:07:03.515Z,48.53
2024-03-08T20:09:30.434Z,45.05
2024-03-08T20:11:59.674Z,44.13
2024-03-08T20:14:27.665Z,46.58
2024-03-08T20:16:54.249Z,47.13
2024-03-08T20:19:23.042Z,43.17
2024-03-08T20:21:50.012Z,43.20
2024-03-08T20:24:16.675Z,43.85
2024-03-08T20:26:44.007Z,46.25
2024-03-08T20:29:12.936Z,45.92
2024-03-08T20:31:39.459Z,40.47
2024-03-08T20:34:06.664Z,43.25
2024-03-08T20:36:33.452Z,46.55
2024-03-08T20:38:59.986Z,48.78
2024-03-08T20:41:27.911Z,46.40
2024-03-08T20:43:56.286Z,42.10
2024-03-08T20:46:23.249Z,41.67
2024-03-08T20:48:50.744Z,45.42
2024-03-08T20:51:18.299Z,41.75
2024-03-08T20:53:44.820Z,43.50
2024-03-08T20:56:11.532Z,47.33
2024-03-08T20:58:39.334Z,50.08
2024-03-08T21:01:09.866Z,42.20
2024-03-08T21:03:37.757Z,44.80
2024-03-08T21:06:07.330Z,45.70
2024-03-08T21:08:35.401Z,47.00
2024-03-08T21:11:02.030Z,41.50
2024-03-08T21:13:29.038Z,39.17
2024-03-08T21:15:56.836Z,55.45
2024-03-08T21:18:25.973Z,48.00
2024-03-08T21:20:53.707Z,43.15
2024-03-08T21:23:20.620Z,43.20
2024-03-08T21:25:47.409Z,44.67
2024-03-08T21:28:16.523Z,41.97
2024-03-08T21:30:43.034Z,45.28
2024-03-08T21:33:12.382Z,42.60
2024-03-08T21:35:40.246Z,43.60
2024-03-08T21:38:08.241Z,45.10
2024-03-08T21:40:37.397Z,41.47
2024-03-08T21:43:04.923Z,41.63
2024-03-08T21:45:32.442Z,45.97
2024-03-08T21:50:32.610Z,39.72
2024-03-08T21:53:01.297Z,49.28
2024-03-08T21:55:28.444Z,48.55
2024-03-08T21:57:55.290Z,47.42
2024-03-08T22:00:24.565Z,45.22
2024-03-08T22:02:51.608Z,43.10
2024-03-08T22:05:24.561Z,46.40
2024-03-08T22:07:52.094Z,42.13
2024-03-08T22:10:27.939Z,42.95
2024-03-08T22:12:56.519Z,39.80
2024-03-08T22:15:24.673Z,44.13
2024-03-08T22:17:54.067Z,42.42
2024-03-08T22:20:22.754Z,45.85
2024-03-08T22:22:50.934Z,43.90
2024-03-08T22:25:18.616Z,44.63
2024-03-08T22:27:46.031Z,40.63
2024-03-08T22:30:16.498Z,42.47
2024-03-08T22:32:43.583Z,43.63
2024-03-08T22:35:11.341Z,43.50
2024-03-08T22:40:12.165Z,40.22
2024-03-08T22:42:45.888Z,44.25
2024-03-08T22:45:14.332Z,41.05
2024-03-08T22:47:45.268Z,44.13
2024-03-08T22:50:17.469Z,43.58
2024-03-08T22:52:46.247Z,43.55
2024-03-08T22:55:13.794Z,42.70
2024-03-08T22:57:41.367Z,43.00
2024-03-08T23:00:37.925Z,45.92
2024-03-08T23:03:09.147Z,41.22
2024-03-08T23:05:35.758Z,39.50
2024-03-08T23:08:05.245Z,41.67
2024-03-08T23:10:31.859Z,40.45
2024-03-08T23:12:58.882Z,41.67
2024-03-08T23:15:29.003Z,48.75
2024-03-08T23:17:56.898Z,46.63
2024-03-08T23:20:34.085Z,44.33
2024-03-08T23:23:05.171Z,47.10
2024-03-08T23:25:32.435Z,44.85
2024-03-08T23:28:01.728Z,43.67
2024-03-08T23:30:29.702Z,46.08
2024-03-08T23:32:59.028Z,42.75
2024-03-08T23:35:27.496Z,46.72
2024-03-08T23:37:55.279Z,45.38
2024-03-08T23:42:52.247Z,46.53
2024-03-08T23:45:22.042Z,48.30
2024-03-08T23:47:56.888Z,44.33
2024-03-08T23:50:30.969Z,46.08
2024-03-08T23:55:30.280Z,44.00
2024-03-08T23:57:57.808Z,46.65
